Brereton, Illinois
Current Conditions -  °F | °C
As of 2:54 AM on Sunday 23 Nov 2014 (Local Time) from KPIA Reporting Station
Haze Haze  
Wind Chill: 51°   Ceiling: Unl
Heat Index: 51°   Visibility: 6mi
Dew Point: 46°   Wind: 9mph
Humidity: 83%   Direction: 170°S
Pressure: 29.77"   Gusts: NA
Location:  40.5579°N, 89.9752°W
Report Text: KPIA 230854Z 17008KT 6SM HZ SCT050 11/08 A2977 RMK AO2 SLP081 T01060078 58021
Loading
Personal Weather Stations






























Interactive Weather Map New forecast layout! Learn more

10-Day Weather Forecast

Advertisements
Track Severe Weather on mobile